Time;durP1;ratioP1;P1;durP2;ratioP2;P2;SDS_P1;SDS_P2;PMS_P1;PMS_P2;Temp;Humidity;BMP_temperature;BMP_pressure;BME280_temperature;BME280_humidity;BME280_pressure;Samples;Min_cycle;Max_cycle;Signal;HPM_P1;HPM_P2
2022/01/23 00:00:16;;;;;;;9.40;4.53;;;;;;;-1.75;70.58;100136.59;5052127;28;20040;-35
2022/01/23 00:02:36;;;;;;;8.75;4.90;;;;;;;-1.87;70.82;100147.00;5051827;28;20070;-35
2022/01/23 00:05:07;;;;;;;11.98;4.97;;;;;;;-1.93;72.18;100154.47;5052192;28;20025;-35
2022/01/23 00:07:33;;;;;;;10.65;5.07;;;;;;;-1.89;71.31;100159.34;5050636;28;20538;-35
2022/01/23 00:10:02;;;;;;;10.45;5.45;;;;;;;-1.91;71.25;100152.59;5051774;28;20053;-35
2022/01/23 00:12:32;;;;;;;12.88;5.03;;;;;;;-1.83;72.64;100156.28;5051702;28;20135;-34
2022/01/23 00:17:41;;;;;;;11.10;5.20;;;;;;;-1.73;72.31;100168.63;5052013;28;20082;-37
2022/01/23 00:20:08;;;;;;;10.35;5.18;;;;;;;-1.65;71.98;100177.56;5051836;28;20033;-35
2022/01/23 00:23:14;;;;;;;10.38;5.32;;;;;;;-1.59;71.35;100171.06;5051688;28;20048;-36
2022/01/23 00:30:56;;;;;;;11.50;6.22;;;;;;;-1.74;71.97;100177.44;5051350;28;20467;-36
2022/01/23 00:33:23;;;;;;;11.63;5.90;;;;;;;-1.74;71.17;100175.63;5051487;28;20027;-37
2022/01/23 00:35:48;;;;;;;11.82;6.00;;;;;;;-1.70;70.52;100179.69;5051223;28;20021;-36
2022/01/23 00:38:14;;;;;;;10.02;5.75;;;;;;;-1.88;72.07;100181.06;5051130;28;20036;-37
2022/01/23 00:40:40;;;;;;;10.82;5.80;;;;;;;-1.94;72.11;100186.72;5049368;28;20430;-36
2022/01/23 00:43:14;;;;;;;12.25;5.90;;;;;;;-1.89;71.48;100179.38;5051023;28;20098;-36
2022/01/23 00:45:46;;;;;;;10.35;5.35;;;;;;;-2.08;71.46;100183.31;5050835;28;20159;-35
2022/01/23 00:48:12;;;;;;;10.02;5.32;;;;;;;-2.07;71.24;100184.19;5051216;28;20029;-36
2022/01/23 00:50:43;;;;;;;9.55;4.90;;;;;;;-2.04;71.14;100195.19;5051200;28;20159;-37
2022/01/23 00:53:10;;;;;;;8.07;5.13;;;;;;;-2.12;69.90;100189.72;5051006;28;20559;-37
2022/01/23 00:55:40;;;;;;;10.10;4.97;;;;;;;-2.42;69.30;100195.34;5051080;28;20023;-35
2022/01/23 00:58:06;;;;;;;8.23;4.20;;;;;;;-2.45;67.88;100185.16;5050764;28;20020;-36
2022/01/23 01:00:32;;;;;;;8.02;4.57;;;;;;;-2.62;68.52;100184.56;5051063;28;20555;-36
2022/01/23 01:02:58;;;;;;;8.63;4.78;;;;;;;-2.21;66.32;100180.78;5051498;28;20082;-36
2022/01/23 01:05:26;;;;;;;8.90;4.20;;;;;;;-2.40;65.63;100183.88;5050870;28;20020;-36
2022/01/23 01:07:53;;;;;;;8.45;4.25;;;;;;;-2.18;64.01;100187.56;5050849;28;20405;-36
2022/01/23 01:10:24;;;;;;;8.23;4.30;;;;;;;-2.13;64.69;100200.25;5050895;28;20080;-35
2022/01/23 01:12:55;;;;;;;8.80;4.45;;;;;;;-1.98;63.02;100201.75;5051369;28;20021;-36
2022/01/23 01:15:34;;;;;;;6.45;3.90;;;;;;;-2.06;64.80;100194.47;5051616;28;20028;-36
2022/01/23 01:32:02;;;;;;;8.10;4.03;;;;;;;-2.43;64.52;100194.53;5029054;28;20036;-36
2022/01/23 01:35:01;;;;;;;7.10;4.30;;;;;;;-2.30;62.69;100196.25;5028801;28;20478;-36
2022/01/23 01:37:16;;;;;;;8.80;4.63;;;;;;;-2.21;63.75;100203.41;5041613;28;20052;-36
2022/01/23 01:39:41;;;;;;;8.25;4.40;;;;;;;-2.07;63.02;100199.84;5049505;28;20033;-36
2022/01/23 01:42:07;;;;;;;8.02;4.10;;;;;;;-2.19;63.57;100201.53;5050906;28;20029;-36
2022/01/23 01:44:32;;;;;;;9.98;4.50;;;;;;;-2.46;62.94;100202.56;5051258;28;20029;-36
2022/01/23 01:46:58;;;;;;;7.28;4.30;;;;;;;-2.40;63.64;100199.53;5050904;28;20033;-36
2022/01/23 01:49:29;;;;;;;9.52;4.70;;;;;;;-2.55;63.85;100213.66;5050915;28;20025;-36
2022/01/23 01:51:56;;;;;;;9.68;4.25;;;;;;;-2.32;64.07;100219.00;5049391;28;20086;-36
2022/01/23 01:54:23;;;;;;;7.95;4.32;;;;;;;-2.32;63.16;100216.38;5050857;28;20032;-36
2022/01/23 01:57:04;;;;;;;10.07;4.60;;;;;;;-2.43;62.62;100215.38;5050669;28;20431;-36
2022/01/23 02:10:34;;;;;;;8.55;4.30;;;;;;;-2.34;61.57;100208.69;5053514;28;20051;-36
2022/01/23 02:55:47;;;;;;;9.75;4.70;;;;;;;-2.03;60.45;100212.53;5054021;28;20040;-36
2022/01/23 02:58:16;;;;;;;8.10;4.13;;;;;;;-2.22;60.44;100217.41;5053597;28;20387;-37
2022/01/23 03:03:49;;;;;;;7.20;4.47;;;;;;;-2.36;61.66;100203.59;5050888;28;20396;-36
2022/01/23 03:06:51;;;;;;;9.25;4.43;;;;;;;-2.18;61.09;100214.47;5051362;28;20484;-36
2022/01/23 03:09:21;;;;;;;9.23;4.75;;;;;;;-2.08;61.77;100216.41;5051709;28;20527;-36
2022/01/23 03:33:18;;;;;;;6.53;3.92;;;;;;;-2.07;59.42;100228.53;5053364;28;20035;-36
2022/01/23 03:35:44;;;;;;;7.40;3.63;;;;;;;-2.17;60.16;100236.16;5053128;28;20017;-36
2022/01/23 03:38:09;;;;;;;7.53;3.65;;;;;;;-2.22;59.48;100235.66;5053169;28;20083;-36
2022/01/23 03:40:35;;;;;;;7.80;3.65;;;;;;;-2.20;58.42;100231.16;5052879;28;20095;-36
2022/01/23 03:43:09;;;;;;;6.20;3.63;;;;;;;-2.31;59.47;100229.31;5053122;28;20455;-36
2022/01/23 03:45:56;;;;;;;6.60;3.55;;;;;;;-2.21;59.69;100232.09;5053170;28;20397;-36
2022/01/23 03:50:52;;;;;;;8.50;3.53;;;;;;;-2.27;59.01;100228.16;5053139;28;20032;-36
2022/01/23 03:53:17;;;;;;;7.03;3.42;;;;;;;-2.52;60.81;100234.28;5052941;28;20477;-36
2022/01/23 03:55:43;;;;;;;7.28;3.70;;;;;;;-2.40;60.68;100238.63;5053061;28;20029;-38
2022/01/23 03:58:08;;;;;;;5.40;3.15;;;;;;;-2.19;59.92;100248.47;5052576;28;20124;-35
2022/01/23 04:00:34;;;;;;;6.95;3.63;;;;;;;-2.16;59.25;100237.81;5052979;28;20028;-37
2022/01/23 04:02:59;;;;;;;7.90;3.88;;;;;;;-2.03;58.59;100240.41;5052623;28;20469;-37
2022/01/23 04:05:25;;;;;;;6.13;2.90;;;;;;;-2.19;58.52;100243.25;5052676;28;20017;-35
2022/01/23 04:07:50;;;;;;;7.05;3.25;;;;;;;-1.94;58.85;100242.34;5052674;28;20044;-36
2022/01/23 04:10:19;;;;;;;6.13;3.35;;;;;;;-2.07;59.61;100242.38;5052428;28;20045;-36
2022/01/23 04:34:19;;;;;;;6.55;3.30;;;;;;;-1.93;58.50;100258.81;5051837;28;20041;-36
2022/01/23 05:01:07;;;;;;;7.78;4.20;;;;;;;-1.87;59.19;100285.28;5051257;28;20074;-36
2022/01/23 05:06:05;;;;;;;9.20;4.30;;;;;;;-2.33;60.25;100292.94;5051141;28;20493;-37
2022/01/23 05:08:33;;;;;;;10.15;5.20;;;;;;;-2.09;59.36;100290.41;5050894;28;20045;-35
2022/01/23 05:11:00;;;;;;;6.97;4.25;;;;;;;-2.06;59.38;100293.59;5051100;28;20123;-37
2022/01/23 05:13:29;;;;;;;8.38;4.40;;;;;;;-1.93;58.62;100292.75;5050939;28;20769;-36
2022/01/23 05:15:55;;;;;;;6.50;3.90;;;;;;;-1.98;59.68;100293.91;5033464;28;20017;-35
2022/01/23 05:18:20;;;;;;;7.22;4.00;;;;;;;-1.97;58.82;100306.00;5051393;28;20365;-35
2022/01/23 05:20:48;;;;;;;5.55;3.40;;;;;;;-2.03;59.19;100303.81;5050891;28;20480;-36
2022/01/23 05:23:14;;;;;;;7.15;4.00;;;;;;;-1.69;58.40;100314.47;5051010;28;20472;-36
2022/01/23 05:25:40;;;;;;;7.13;4.00;;;;;;;-1.71;58.14;100318.09;5051081;28;20078;-35
2022/01/23 05:28:07;;;;;;;6.50;4.00;;;;;;;-2.17;59.00;100309.16;5050640;28;20025;-36
2022/01/23 05:30:33;;;;;;;6.50;3.80;;;;;;;-2.14;59.41;100308.97;5049571;28;20525;-36
2022/01/23 05:33:00;;;;;;;6.90;4.15;;;;;;;-2.14;60.01;100308.97;5051411;28;20100;-35
2022/01/23 05:35:27;;;;;;;5.47;3.47;;;;;;;-2.22;60.36;100311.28;5050821;28;20028;-36
2022/01/23 05:37:53;;;;;;;7.20;4.00;;;;;;;-2.06;59.41;100314.47;5050735;28;20032;-36
2022/01/23 05:40:20;;;;;;;6.78;3.50;;;;;;;-2.32;59.29;100313.69;5051124;28;20017;-35
2022/01/23 05:42:46;;;;;;;6.80;3.78;;;;;;;-2.28;59.68;100320.38;5050802;28;20368;-37
2022/01/23 05:45:11;;;;;;;21.83;10.55;;;;;;;-1.98;60.08;100314.78;5050329;28;20726;-37
2022/01/23 05:47:37;;;;;;;15.88;7.18;;;;;;;-2.21;59.91;100315.53;5050397;28;20409;-37
2022/01/23 05:50:06;;;;;;;7.28;4.40;;;;;;;-2.07;59.59;100320.63;5050534;28;20025;-37
2022/01/23 05:52:31;;;;;;;9.63;4.28;;;;;;;-1.93;58.81;100316.22;5050421;28;20131;-35
2022/01/23 05:54:58;;;;;;;7.25;4.35;;;;;;;-1.89;59.77;100323.69;5050750;28;20051;-38
2022/01/23 05:57:23;;;;;;;9.13;4.32;;;;;;;-1.58;58.49;100324.97;5050421;28;20025;-49
2022/01/23 05:59:49;;;;;;;8.60;4.00;;;;;;;-1.65;58.28;100323.75;5050383;28;20032;-49
2022/01/23 06:02:14;;;;;;;11.73;5.35;;;;;;;-1.68;58.08;100330.94;5050999;28;20554;-47
2022/01/23 06:04:39;;;;;;;14.25;6.70;;;;;;;-1.72;58.90;100332.13;5050547;28;20377;-49
2022/01/23 06:07:05;;;;;;;14.82;6.85;;;;;;;-1.13;57.29;100344.38;5050323;28;20021;-47
2022/01/23 06:09:30;;;;;;;8.65;4.15;;;;;;;-1.07;56.59;100338.69;5050520;28;20053;-49
2022/01/23 06:11:56;;;;;;;16.65;7.72;;;;;;;-0.88;55.84;100344.19;5050861;28;20028;-47
2022/01/23 06:14:21;;;;;;;12.25;5.85;;;;;;;-0.90;56.18;100338.25;5050709;28;20025;-48
2022/01/23 06:16:47;;;;;;;6.53;4.03;;;;;;;-0.53;55.31;100337.25;5050939;28;20024;-49
2022/01/23 06:19:12;;;;;;;7.10;3.97;;;;;;;-0.31;54.47;100325.97;5050390;28;20507;-47
2022/01/23 06:21:38;;;;;;;7.93;3.72;;;;;;;-0.26;53.94;100335.13;5050454;28;20086;-36
2022/01/23 06:24:10;;;;;;;9.20;3.90;;;;;;;-0.17;54.23;100333.59;5050545;28;20031;-48
2022/01/23 06:26:45;;;;;;;8.30;4.15;;;;;;;-0.15;53.94;100346.53;5050271;28;20017;-49
2022/01/23 06:29:11;;;;;;;7.90;4.10;;;;;;;0.65;52.34;100345.44;5050831;28;20025;-37
2022/01/23 06:31:37;;;;;;;8.27;4.30;;;;;;;-0.01;53.12;100360.22;5049069;28;20060;-37
2022/01/23 06:34:05;;;;;;;7.50;3.72;;;;;;;0.04;53.17;100354.63;5050334;28;20028;-37
2022/01/23 06:36:31;;;;;;;6.82;4.00;;;;;;;0.23;52.79;100355.78;5050188;28;20033;-36
2022/01/23 06:38:56;;;;;;;8.82;4.00;;;;;;;0.27;53.63;100355.44;5050551;28;20135;-37
2022/01/23 06:41:22;;;;;;;5.10;3.28;;;;;;;-0.14;53.36;100340.38;5050369;28;20021;-36
2022/01/23 06:43:47;;;;;;;6.25;3.78;;;;;;;-0.24;53.73;100348.09;5050638;28;20492;-36
2022/01/23 06:46:13;;;;;;;8.30;3.95;;;;;;;0.30;52.41;100354.34;5050451;28;20415;-38
2022/01/23 06:48:38;;;;;;;7.20;3.83;;;;;;;0.18;52.22;100348.31;5050466;28;20021;-36
2022/01/23 06:51:04;;;;;;;9.18;4.65;;;;;;;0.54;51.45;100344.53;5049927;28;20024;-51
2022/01/23 06:53:29;;;;;;;8.68;5.32;;;;;;;1.58;59.05;100349.09;5050270;28;20032;-50
2022/01/23 06:55:55;;;;;;;16.02;7.60;;;;;;;2.28;56.36;100342.19;5052007;28;20024;-37
2022/01/23 06:58:20;;;;;;;21.15;12.32;;;;;;;2.03;48.46;100346.94;5053967;28;20078;-37
2022/01/23 07:00:45;;;;;;;10.80;6.18;;;;;;;0.70;50.13;100341.47;5054011;28;20074;-37
2022/01/23 07:03:12;;;;;;;11.25;4.70;;;;;;;0.05;52.04;100347.59;5054149;28;20519;-36
2022/01/23 07:05:37;;;;;;;8.95;4.97;;;;;;;0.05;52.48;100350.22;5053152;28;20109;-37
2022/01/23 07:08:03;;;;;;;8.57;4.55;;;;;;;-0.22;53.00;100343.59;5053703;28;20384;-36
2022/01/23 07:10:29;;;;;;;9.43;4.22;;;;;;;-0.68;53.84;100334.88;5053672;28;20061;-37
2022/01/23 07:12:54;;;;;;;9.10;3.92;;;;;;;-0.76;54.03;100344.22;5054118;28;20044;-37
2022/01/23 07:15:20;;;;;;;9.40;4.75;;;;;;;-0.53;53.30;100345.09;5053493;28;20043;-36
2022/01/23 07:17:46;;;;;;;7.55;3.97;;;;;;;-1.01;54.99;100346.91;5053665;28;20072;-38
2022/01/23 07:20:12;;;;;;;7.63;4.05;;;;;;;-0.99;54.46;100333.72;5053471;28;20464;-52
2022/01/23 07:22:37;;;;;;;8.35;3.95;;;;;;;-1.21;54.47;100351.00;5053564;28;20025;-47
2022/01/23 07:25:04;;;;;;;7.70;4.15;;;;;;;-1.01;54.91;100343.44;5053235;28;20049;-51
2022/01/23 07:27:46;;;;;;;8.25;4.53;;;;;;;-1.05;54.41;100353.31;5052907;28;20480;-51
2022/01/23 07:30:25;;;;;;;7.43;4.63;;;;;;;-1.24;54.64;100355.59;5051726;28;20032;-49
2022/01/23 07:32:51;;;;;;;22.15;7.15;;;;;;;-0.99;54.04;100360.69;5052806;28;20032;-50
2022/01/23 07:35:16;;;;;;;7.03;3.85;;;;;;;-1.00;54.28;100377.31;5052418;28;20021;-49
2022/01/23 07:37:41;;;;;;;7.00;3.88;;;;;;;-1.32;53.80;100366.63;5052537;28;20039;-50
2022/01/23 07:40:07;;;;;;;6.25;3.65;;;;;;;-0.94;53.15;100365.56;5051722;28;20029;-48
2022/01/23 07:42:33;;;;;;;9.57;4.05;;;;;;;-0.77;52.93;100368.72;5051873;28;20439;-50
2022/01/23 07:44:59;;;;;;;9.73;4.82;;;;;;;-0.73;52.59;100378.81;5051806;28;20152;-49
2022/01/23 07:47:25;;;;;;;8.25;3.78;;;;;;;-0.64;52.57;100369.47;5051723;28;20021;-47
2022/01/23 07:49:50;;;;;;;7.75;4.10;;;;;;;-0.76;52.78;100366.00;5051911;28;20032;-50
2022/01/23 07:52:19;;;;;;;6.90;4.53;;;;;;;-0.71;52.70;100357.78;5051687;28;20101;-49
2022/01/23 07:54:44;;;;;;;9.63;4.60;;;;;;;-0.74;52.30;100360.63;5049218;28;20009;-52
2022/01/23 07:57:10;;;;;;;9.30;4.50;;;;;;;-0.74;52.71;100368.47;5051679;28;20032;-51
2022/01/23 07:59:35;;;;;;;9.32;4.90;;;;;;;-0.83;53.11;100367.41;5051234;28;20017;-49
2022/01/23 08:02:01;;;;;;;6.95;3.72;;;;;;;-0.77;52.05;100364.31;5051460;28;20021;-52
2022/01/23 08:04:27;;;;;;;7.50;4.28;;;;;;;-0.29;51.31;100374.59;5051508;28;20021;-51
2022/01/23 08:07:08;;;;;;;7.63;3.85;;;;;;;-0.81;52.09;100357.66;5050804;28;20104;-50
2022/01/23 08:09:33;;;;;;;9.27;4.03;;;;;;;-0.66;52.08;100353.06;5050092;28;20049;-37
2022/01/23 08:11:59;;;;;;;10.52;4.55;;;;;;;-0.36;51.25;100354.25;5051694;28;20039;-37
2022/01/23 08:14:24;;;;;;;7.72;4.13;;;;;;;-0.41;51.62;100359.88;5051544;28;20098;-37
2022/01/23 08:16:49;;;;;;;8.32;4.70;;;;;;;-0.29;51.29;100353.69;5051346;28;20493;-37
2022/01/23 08:19:15;;;;;;;9.95;4.40;;;;;;;-0.03;50.63;100356.88;5051678;28;20382;-37
2022/01/23 08:21:40;;;;;;;9.40;4.65;;;;;;;-0.27;50.89;100343.09;5050977;28;20032;-36
2022/01/23 08:24:06;;;;;;;9.13;4.80;;;;;;;-0.07;51.31;100347.63;5051263;28;20033;-37
2022/01/23 08:26:31;;;;;;;10.02;4.82;;;;;;;0.34;50.49;100345.28;5051765;28;20060;-35
2022/01/23 08:28:57;;;;;;;9.57;4.53;;;;;;;0.51;49.48;100346.56;5051841;28;20029;-37
2022/01/23 08:31:22;;;;;;;8.50;5.10;;;;;;;1.08;49.65;100357.63;5050594;28;20044;-36
2022/01/23 08:33:48;;;;;;;16.80;8.00;;;;;;;1.03;48.41;100358.03;5047654;28;20021;-37
2022/01/23 08:36:13;;;;;;;62.75;22.65;;;;;;;1.23;48.00;100355.53;5049840;28;20495;-37
2022/01/23 08:38:39;;;;;;;38.70;14.85;;;;;;;1.30;47.79;100354.91;5049128;28;20028;-38
2022/01/23 08:43:49;;;;;;;12.15;7.15;;;;;;;1.39;46.42;100348.06;5048387;28;20099;-37
2022/01/23 08:46:14;;;;;;;8.57;4.68;;;;;;;1.10;47.73;100350.47;5049420;28;20033;-52
2022/01/23 08:48:41;;;;;;;9.07;5.47;;;;;;;1.72;47.00;100335.66;5047323;28;20032;-52
2022/01/23 08:51:07;;;;;;;15.43;4.97;;;;;;;1.51;46.87;100343.56;5049102;28;20056;-51
2022/01/23 08:53:33;;;;;;;6.13;3.70;;;;;;;0.99;46.36;100338.28;5050466;28;20033;-50
2022/01/23 08:55:58;;;;;;;6.88;3.90;;;;;;;0.85;48.48;100300.09;5050277;28;20029;-50
2022/01/23 08:58:24;;;;;;;8.82;4.50;;;;;;;1.07;46.86;100335.03;5049762;28;20035;-49
2022/01/23 09:00:49;;;;;;;6.03;3.58;;;;;;;0.89;46.26;100321.63;5049667;28;20465;-51
2022/01/23 09:03:15;;;;;;;8.60;4.13;;;;;;;1.53;45.31;100325.91;5047618;28;20394;-51
2022/01/23 09:05:40;;;;;;;6.68;3.50;;;;;;;1.96;44.69;100309.06;5049588;28;20029;-52
2022/01/23 09:08:06;;;;;;;5.00;3.33;;;;;;;1.85;43.57;100314.44;5050227;28;20469;-51
2022/01/23 09:10:40;;;;;;;7.38;3.33;;;;;;;1.65;43.81;100318.75;5050384;28;20057;-51
2022/01/23 09:15:34;;;;;;;8.48;3.78;;;;;;;1.28;44.52;100319.28;5050238;28;20104;-52
2022/01/23 09:17:59;;;;;;;10.63;4.45;;;;;;;1.20;44.46;100314.69;5048862;28;20112;-48
2022/01/23 09:20:25;;;;;;;7.00;3.92;;;;;;;1.56;44.17;100317.75;5050023;28;20028;-51
2022/01/23 09:22:50;;;;;;;7.47;3.88;;;;;;;1.37;44.51;100313.25;5050268;28;20020;-49
2022/01/23 09:25:16;;;;;;;5.32;3.65;;;;;;;1.10;44.42;100305.91;5048453;28;20393;-50
2022/01/23 09:27:41;;;;;;;6.85;3.60;;;;;;;1.37;45.21;100308.00;5040653;28;20040;-51
2022/01/23 09:30:17;;;;;;;7.88;3.45;;;;;;;1.19;45.27;100293.84;5030599;28;20049;-48
2022/01/23 09:32:43;;;;;;;9.38;4.57;;;;;;;1.38;44.58;100293.09;5029398;28;20029;-51
2022/01/23 09:35:09;;;;;;;6.35;3.65;;;;;;;1.51;43.83;100293.72;5036134;28;20112;-51
2022/01/23 09:37:35;;;;;;;11.20;3.45;;;;;;;1.35;44.40;100288.94;5050186;28;20044;-51
2022/01/23 09:40:00;;;;;;;5.38;3.47;;;;;;;1.35;44.26;100287.16;5050140;28;20025;-52
2022/01/23 09:42:41;;;;;;;6.32;3.72;;;;;;;1.49;46.89;100285.16;5048652;28;20033;-50
2022/01/23 09:45:09;;;;;;;8.80;3.58;;;;;;;1.31;44.14;100284.91;5048659;28;20057;-51
2022/01/23 09:47:35;;;;;;;9.18;4.35;;;;;;;1.97;43.13;100281.84;5049483;28;20028;-52
2022/01/23 09:50:03;;;;;;;8.10;3.85;;;;;;;1.54;42.88;100281.19;5048313;28;20025;-51
2022/01/23 09:52:33;;;;;;;6.82;4.00;;;;;;;1.46;42.98;100280.97;5049792;28;20044;-51
2022/01/23 09:55:01;;;;;;;;;;;;;;;1.53;42.69;100266.38;5050627;28;20167;-49
2022/01/23 09:57:32;;;;;;;7.97;3.65;;;;;;;1.78;42.50;100253.75;5050040;28;20268;-49
2022/01/23 09:59:58;;;;;;;7.50;3.28;;;;;;;1.76;42.16;100251.25;5050071;28;20481;-51
2022/01/23 10:02:24;;;;;;;5.70;3.10;;;;;;;1.98;41.32;100240.69;5048858;28;20086;-51
2022/01/23 10:04:51;;;;;;;8.88;3.70;;;;;;;1.94;40.87;100246.22;5050037;28;20218;-51
2022/01/23 10:07:16;;;;;;;6.47;3.33;;;;;;;1.90;41.34;100236.91;5049648;28;20150;-49
2022/01/23 10:09:42;;;;;;;6.10;3.38;;;;;;;1.94;41.02;100237.47;5048678;28;20092;-53
2022/01/23 10:12:08;;;;;;;8.10;3.83;;;;;;;1.69;40.94;100242.25;5049199;28;20032;-37
2022/01/23 10:14:35;;;;;;;6.90;3.58;;;;;;;1.84;41.29;100234.84;5050345;28;20416;-38
2022/01/23 10:17:00;;;;;;;5.18;3.13;;;;;;;1.74;40.94;100240.06;5050282;28;20035;-48
2022/01/23 10:19:26;;;;;;;7.30;4.30;;;;;;;1.77;41.61;100233.72;5065756;28;20021;-51
2022/01/23 10:21:51;;;;;;;11.48;3.72;;;;;;;1.89;41.04;100218.72;5056937;28;20156;-52
2022/01/23 10:24:17;;;;;;;7.32;3.70;;;;;;;2.07;39.22;100243.31;5043238;28;20154;-52
2022/01/23 10:26:53;;;;;;;7.90;3.42;;;;;;;1.87;40.15;100231.13;5055152;28;20032;-50
2022/01/23 10:29:24;;;;;;;8.10;3.65;;;;;;;1.94;39.96;100235.72;5064799;28;20029;-52
2022/01/23 10:32:20;;;;;;;5.82;3.45;;;;;;;2.08;39.78;100226.59;5060140;28;20111;-50
2022/01/23 10:34:46;;;;;;;6.32;3.67;;;;;;;2.16;40.36;100233.78;5058731;28;20354;-48
2022/01/23 10:37:22;;;;;;;8.70;4.22;;;;;;;2.30;40.10;100233.41;5069917;28;20488;-48
2022/01/23 10:39:47;;;;;;;6.13;3.35;;;;;;;1.97;40.85;100231.97;5052353;28;20508;-53
2022/01/23 10:48:27;;;;;;;8.77;4.75;;;;;;;2.04;40.81;100216.53;5062270;28;20067;-50
2022/01/23 10:50:53;;;;;;;9.00;3.90;;;;;;;1.74;39.52;100219.09;5055228;28;20450;-52
2022/01/23 10:53:18;;;;;;;9.95;4.00;;;;;;;1.61;40.38;100218.50;5068314;28;20100;-51
2022/01/23 10:55:45;;;;;;;8.27;4.00;;;;;;;1.61;41.60;100212.44;5059113;28;20100;-50
2022/01/23 10:58:21;;;;;;;7.38;4.13;;;;;;;1.81;42.58;100215.91;5062785;28;20091;-50
2022/01/23 11:00:46;;;;;;;8.98;4.50;;;;;;;1.70;41.38;100199.31;5068216;28;20115;-51
2022/01/23 11:03:20;;;;;;;8.05;4.20;;;;;;;1.77;41.53;100210.09;5056249;28;20029;-52
2022/01/23 11:05:45;;;;;;;6.28;3.85;;;;;;;1.72;41.11;100207.06;5066283;28;20037;-51
2022/01/23 11:08:24;;;;;;;6.10;3.67;;;;;;;1.58;41.50;100199.56;5063450;28;20385;-53
2022/01/23 11:11:00;;;;;;;10.25;4.82;;;;;;;1.90;40.57;100197.56;5056079;28;20041;-51
2022/01/23 11:19:26;;;;;;;9.68;5.32;;;;;;;1.58;41.25;100189.94;5052563;28;20170;-50
2022/01/23 11:21:55;;;;;;;10.15;5.00;;;;;;;1.55;42.25;100180.50;5052799;28;20140;-53
2022/01/23 11:24:21;;;;;;;10.90;5.65;;;;;;;1.53;42.08;100192.94;5040619;28;20040;-51
2022/01/23 11:26:46;;;;;;;9.25;4.90;;;;;;;1.61;42.56;100189.63;5033901;28;20405;-36
2022/01/23 11:29:14;;;;;;;6.85;4.50;;;;;;;2.08;41.38;100195.09;5038169;28;20104;-46
2022/01/23 11:31:40;;;;;;;9.13;4.43;;;;;;;2.05;42.01;100187.47;5032624;28;20029;-36
2022/01/23 11:34:06;;;;;;;7.45;4.57;;;;;;;2.18;41.97;100183.78;5031784;28;20029;-38
2022/01/23 11:36:32;;;;;;;9.20;5.00;;;;;;;2.14;42.27;100193.72;5032345;28;20025;-37
2022/01/23 11:39:06;;;;;;;11.20;4.70;;;;;;;1.60;41.95;100192.38;5032144;28;20040;-38
2022/01/23 11:55:31;;;;;;;8.32;3.97;;;;;;;1.10;43.33;100191.38;5052064;28;20448;-38
2022/01/23 11:57:57;;;;;;;8.88;4.32;;;;;;;1.07;42.48;100186.44;5052224;28;20040;-37
2022/01/23 12:00:26;;;;;;;7.50;4.32;;;;;;;1.06;44.22;100176.88;5052774;28;20029;-38
2022/01/23 12:03:16;;;;;;;7.43;3.90;;;;;;;1.08;42.57;100192.50;5052199;28;20445;-37
2022/01/23 12:05:44;;;;;;;8.48;4.22;;;;;;;0.81;45.82;100195.69;5052122;28;20044;-38
2022/01/23 12:08:26;;;;;;;9.57;4.82;;;;;;;1.10;43.71;100193.19;5052080;28;20025;-37
2022/01/23 12:16:58;;;;;;;8.98;4.47;;;;;;;0.81;43.94;100190.44;5051384;28;20056;-37
2022/01/23 12:19:24;;;;;;;6.70;4.25;;;;;;;0.67;44.34;100178.50;5051731;28;20036;-37
2022/01/23 12:21:52;;;;;;;7.22;4.43;;;;;;;0.69;44.29;100190.50;5051845;28;20029;-37
2022/01/23 12:24:19;;;;;;;7.57;4.45;;;;;;;0.69;44.33;100193.13;5051890;28;20029;-37
2022/01/23 12:26:45;;;;;;;8.85;5.00;;;;;;;0.84;45.07;100191.00;5051606;28;20033;-36
2022/01/23 12:29:12;;;;;;;7.90;4.43;;;;;;;0.64;44.62;100197.09;5051154;28;20013;-50
2022/01/23 12:31:38;;;;;;;6.88;3.88;;;;;;;0.38;44.72;100193.06;5051965;28;20021;-52
2022/01/23 12:34:04;;;;;;;11.05;3.83;;;;;;;0.44;45.38;100188.25;5051756;28;20369;-37
2022/01/23 12:36:43;;;;;;;9.07;4.15;;;;;;;0.46;45.40;100175.84;5053621;28;20498;-49
2022/01/23 12:39:08;;;;;;;8.07;4.60;;;;;;;0.45;46.62;100187.31;5051834;28;20602;-50
2022/01/23 12:41:38;;;;;;;8.88;4.30;;;;;;;0.65;45.28;100181.25;5051535;28;20033;-49
2022/01/23 12:44:30;;;;;;;10.68;5.20;;;;;;;0.71;47.12;100178.09;5052415;28;20171;-50
2022/01/23 12:46:56;;;;;;;7.75;4.32;;;;;;;0.55;45.34;100183.81;5046726;28;20044;-36
2022/01/23 12:49:30;;;;;;;7.00;3.95;;;;;;;0.42;45.67;100198.88;5051611;28;20029;-50
2022/01/23 12:52:05;;;;;;;7.68;4.30;;;;;;;0.82;45.14;100185.06;5052221;28;20439;-50
2022/01/23 12:54:31;;;;;;;8.50;4.55;;;;;;;0.71;44.21;100191.19;5050898;28;20031;-37
2022/01/23 12:57:04;;;;;;;8.48;4.82;;;;;;;0.88;45.05;100189.78;5051763;28;20103;-36
2022/01/23 12:59:33;;;;;;;9.32;4.57;;;;;;;0.79;45.23;100177.47;5050622;28;20025;-52
2022/01/23 13:02:06;;;;;;;8.37;4.50;;;;;;;0.75;46.31;100186.53;5047000;28;20025;-36
2022/01/23 13:04:49;;;;;;;9.70;5.07;;;;;;;0.77;45.20;100198.53;5051214;28;20025;-49
2022/01/23 13:10:08;;;;;;;7.75;4.05;;;;;;;0.72;45.94;100192.88;5048200;28;20055;-50
2022/01/23 13:12:49;;;;;;;6.25;4.15;;;;;;;0.77;45.57;100182.00;5050650;28;20035;-47
2022/01/23 13:31:58;;;;;;;8.70;5.10;;;;;;;1.23;45.98;100213.94;5049471;28;20048;-52
2022/01/23 13:34:24;;;;;;;10.65;5.45;;;;;;;1.31;46.23;100214.09;5050011;28;20012;-48
2022/01/23 13:37:13;;;;;;;7.82;5.05;;;;;;;1.00;46.87;100201.00;5049525;28;20021;-51
2022/01/23 13:39:48;;;;;;;10.00;5.43;;;;;;;1.20;46.49;100215.06;5048809;28;20021;-37
2022/01/23 13:53:30;;;;;;;7.40;3.67;;;;;;;0.52;46.73;100212.03;5049673;28;20032;-51
2022/01/23 13:58:42;;;;;;;9.98;5.30;;;;;;;0.31;47.66;100215.47;5049631;28;20365;-52
2022/01/23 14:03:53;;;;;;;9.75;5.32;;;;;;;0.57;47.48;100215.94;5049843;28;20511;-52
2022/01/23 14:06:18;;;;;;;11.55;5.45;;;;;;;0.87;46.21;100211.69;5052406;28;20436;-37
2022/01/23 14:09:00;;;;;;;11.73;5.90;;;;;;;1.17;46.20;100225.78;5054551;28;20072;-38
2022/01/23 14:11:26;;;;;;;10.07;4.88;;;;;;;0.56;46.92;100218.69;5054226;28;20024;-37
2022/01/23 14:13:52;;;;;;;8.70;4.93;;;;;;;0.48;46.86;100227.16;5054130;28;20090;-37
2022/01/23 14:16:24;;;;;;;8.05;4.28;;;;;;;0.54;47.06;100220.59;5052753;28;20029;-37
2022/01/23 14:18:49;;;;;;;8.18;4.53;;;;;;;0.37;47.49;100214.94;5052876;28;20021;-37
2022/01/23 14:21:15;;;;;;;9.30;4.65;;;;;;;0.35;47.24;100213.44;5053903;28;20502;-37
2022/01/23 14:23:40;;;;;;;7.78;4.55;;;;;;;0.73;47.11;100214.66;5053829;28;20392;-36
2022/01/23 14:26:09;;;;;;;9.88;4.85;;;;;;;0.48;47.61;100221.13;5052440;28;20021;-37
2022/01/23 14:28:41;;;;;;;9.20;4.65;;;;;;;0.56;47.45;100222.13;5053523;28;20017;-38
2022/01/23 14:31:16;;;;;;;10.65;4.88;;;;;;;0.50;47.16;100219.19;5053335;28;20430;-37
2022/01/23 14:33:42;;;;;;;9.15;4.78;;;;;;;0.63;46.80;100209.38;5053630;28;20120;-37
2022/01/23 14:36:17;;;;;;;11.20;5.82;;;;;;;0.62;47.04;100207.69;5053653;28;20019;-37
2022/01/23 14:38:58;;;;;;;10.27;5.47;;;;;;;0.36;47.54;100221.16;5053816;28;20111;-51
2022/01/23 14:41:24;;;;;;;10.65;5.38;;;;;;;0.31;47.67;100222.50;5053506;28;20025;-50
2022/01/23 14:43:50;;;;;;;11.45;5.15;;;;;;;0.44;47.19;100189.09;5053641;28;20048;-52
2022/01/23 14:46:15;;;;;;;13.00;6.20;;;;;;;0.72;48.02;100224.31;5052583;28;20028;-52
2022/01/23 14:48:48;;;;;;;9.00;4.55;;;;;;;0.11;48.44;100221.47;5052695;28;20028;-51
2022/01/23 14:51:18;;;;;;;9.00;4.78;;;;;;;0.38;48.01;100215.78;5051051;28;20024;-52
2022/01/23 14:53:44;;;;;;;8.75;4.75;;;;;;;0.28;47.97;100238.44;5053035;28;20025;-51
2022/01/23 14:56:11;;;;;;;10.00;4.95;;;;;;;0.13;48.62;100237.91;5052621;28;20456;-49
2022/01/23 14:58:37;;;;;;;9.48;4.70;;;;;;;0.56;48.96;100232.59;5052358;28;20035;-48
2022/01/23 15:01:04;;;;;;;8.55;4.55;;;;;;;0.51;49.04;100234.75;5052212;28;20055;-50
2022/01/23 15:03:30;;;;;;;9.30;4.75;;;;;;;0.31;48.35;100238.19;5051007;28;20032;-48
2022/01/23 15:05:55;;;;;;;9.25;4.75;;;;;;;0.41;49.29;100256.59;5052042;28;20072;-48
2022/01/23 15:08:23;;;;;;;10.02;4.88;;;;;;;0.42;48.61;100242.53;5051500;28;20434;-51
2022/01/23 15:10:50;;;;;;;12.25;5.28;;;;;;;-0.09;49.90;100255.31;5052079;28;20091;-52
2022/01/23 15:13:15;;;;;;;9.95;5.53;;;;;;;0.54;48.75;100259.88;5050391;28;20036;-49
2022/01/23 15:15:41;;;;;;;7.90;4.65;;;;;;;0.43;49.56;100259.94;5049887;28;20013;-47